Thousand Island Park, New York
Current Conditions -  °F | °C
As of 3:56 PM on Thursday 27 Nov 2014 (Local Time) from KART Reporting Station
Light Snow Light Snow  
Wind Chill: 30°   Ceiling: 3700
Heat Index: 30°   Visibility: 3mi
Dew Point: 22°   Wind: 0mph
Humidity: 72%   Direction: NA
Pressure: 30.05"   Gusts: NA
Location:  44.29°N, 76.03°W
Report Text: KART 272056Z AUTO 00000KT 3SM -SN BKN037 OVC050 M01/M06 A3005 RMK AO2 SLP180 P0000 60000 T10111056 53005
Loading
Personal Weather Stations






























Interactive Weather Map New forecast layout! Learn more

10-Day Weather Forecast

Advertisements
Track Severe Weather on mobile